sensor_id;sensor_type;location;lat;lon;timestamp;P1;durP1;ratioP1;P2;durP2;ratioP2
37495;SDS011;23346;52.088;4.746;2023-03-01T00:01:49;14.80;;;8.40;;
37495;SDS011;23346;52.088;4.746;2023-03-01T00:04:15;14.10;;;7.40;;
37495;SDS011;23346;52.088;4.746;2023-03-01T00:06:42;21.67;;;8.80;;
37495;SDS011;23346;52.088;4.746;2023-03-01T00:09:11;21.73;;;8.27;;
37495;SDS011;23346;52.088;4.746;2023-03-01T00:11:37;20.27;;;9.27;;
37495;SDS011;23346;52.088;4.746;2023-03-01T00:14:03;12.83;;;8.27;;
37495;SDS011;23346;52.088;4.746;2023-03-01T00:16:36;17.13;;;9.60;;
37495;SDS011;23346;52.088;4.746;2023-03-01T00:19:04;19.43;;;9.47;;
37495;SDS011;23346;52.088;4.746;2023-03-01T00:21:30;12.90;;;7.70;;
37495;SDS011;23346;52.088;4.746;2023-03-01T00:23:56;15.53;;;10.17;;
37495;SDS011;23346;52.088;4.746;2023-03-01T00:26:23;19.77;;;11.87;;
37495;SDS011;23346;52.088;4.746;2023-03-01T00:28:50;12.47;;;7.87;;
37495;SDS011;23346;52.088;4.746;2023-03-01T00:31:20;18.87;;;10.77;;
37495;SDS011;23346;52.088;4.746;2023-03-01T00:33:46;16.23;;;10.50;;
37495;SDS011;23346;52.088;4.746;2023-03-01T00:36:13;15.50;;;11.23;;
37495;SDS011;23346;52.088;4.746;2023-03-01T00:38:41;21.50;;;12.97;;
37495;SDS011;23346;52.088;4.746;2023-03-01T00:41:09;22.53;;;13.27;;
37495;SDS011;23346;52.088;4.746;2023-03-01T00:43:35;30.87;;;14.37;;
37495;SDS011;23346;52.088;4.746;2023-03-01T00:46:05;26.20;;;15.97;;
37495;SDS011;23346;52.088;4.746;2023-03-01T00:48:31;28.20;;;16.70;;
37495;SDS011;23346;52.088;4.746;2023-03-01T00:51:03;36.00;;;14.53;;
37495;SDS011;23346;52.088;4.746;2023-03-01T00:53:29;29.73;;;16.60;;
37495;SDS011;23346;52.088;4.746;2023-03-01T00:55:56;21.47;;;12.00;;
37495;SDS011;23346;52.088;4.746;2023-03-01T00:58:22;22.87;;;13.30;;
37495;SDS011;23346;52.088;4.746;2023-03-01T01:00:48;30.53;;;16.67;;
37495;SDS011;23346;52.088;4.746;2023-03-01T01:03:15;31.10;;;18.37;;
37495;SDS011;23346;52.088;4.746;2023-03-01T01:05:41;35.07;;;17.97;;
37495;SDS011;23346;52.088;4.746;2023-03-01T01:08:07;28.40;;;15.57;;
37495;SDS011;23346;52.088;4.746;2023-03-01T01:10:33;29.20;;;16.53;;
37495;SDS011;23346;52.088;4.746;2023-03-01T01:12:59;31.47;;;17.07;;
37495;SDS011;23346;52.088;4.746;2023-03-01T01:15:26;25.10;;;15.63;;
37495;SDS011;23346;52.088;4.746;2023-03-01T01:17:52;40.17;;;17.97;;
37495;SDS011;23346;52.088;4.746;2023-03-01T01:20:18;32.53;;;18.90;;
37495;SDS011;23346;52.088;4.746;2023-03-01T01:22:44;35.03;;;17.47;;
37495;SDS011;23346;52.088;4.746;2023-03-01T01:25:10;27.37;;;15.53;;
37495;SDS011;23346;52.088;4.746;2023-03-01T01:27:36;36.33;;;17.30;;
37495;SDS011;23346;52.088;4.746;2023-03-01T01:30:02;24.30;;;15.87;;
37495;SDS011;23346;52.088;4.746;2023-03-01T01:32:29;24.03;;;14.23;;
37495;SDS011;23346;52.088;4.746;2023-03-01T01:34:55;27.87;;;15.90;;
37495;SDS011;23346;52.088;4.746;2023-03-01T01:37:21;32.43;;;17.77;;
37495;SDS011;23346;52.088;4.746;2023-03-01T01:39:47;32.00;;;17.77;;
37495;SDS011;23346;52.088;4.746;2023-03-01T01:42:17;25.17;;;15.23;;
37495;SDS011;23346;52.088;4.746;2023-03-01T01:44:46;26.93;;;17.13;;
37495;SDS011;23346;52.088;4.746;2023-03-01T01:47:14;23.67;;;14.07;;
37495;SDS011;23346;52.088;4.746;2023-03-01T01:49:46;25.80;;;15.70;;
37495;SDS011;23346;52.088;4.746;2023-03-01T01:52:31;28.83;;;14.70;;
37495;SDS011;23346;52.088;4.746;2023-03-01T01:55:04;27.43;;;14.63;;
37495;SDS011;23346;52.088;4.746;2023-03-01T01:57:39;25.83;;;15.43;;
37495;SDS011;23346;52.088;4.746;2023-03-01T02:00:07;23.67;;;15.27;;
37495;SDS011;23346;52.088;4.746;2023-03-01T02:02:33;28.83;;;15.73;;
37495;SDS011;23346;52.088;4.746;2023-03-01T02:05:04;31.57;;;16.37;;
37495;SDS011;23346;52.088;4.746;2023-03-01T02:07:35;24.00;;;14.53;;
37495;SDS011;23346;52.088;4.746;2023-03-01T02:10:02;24.83;;;16.67;;
37495;SDS011;23346;52.088;4.746;2023-03-01T02:12:28;29.33;;;16.30;;
37495;SDS011;23346;52.088;4.746;2023-03-01T02:14:54;31.47;;;17.93;;
37495;SDS011;23346;52.088;4.746;2023-03-01T02:17:20;35.33;;;19.00;;
37495;SDS011;23346;52.088;4.746;2023-03-01T02:22:27;29.03;;;16.67;;
37495;SDS011;23346;52.088;4.746;2023-03-01T02:30:31;30.93;;;17.33;;
37495;SDS011;23346;52.088;4.746;2023-03-01T02:32:58;24.83;;;15.53;;
37495;SDS011;23346;52.088;4.746;2023-03-01T02:35:27;34.27;;;16.93;;
37495;SDS011;23346;52.088;4.746;2023-03-01T02:37:55;33.37;;;16.80;;
37495;SDS011;23346;52.088;4.746;2023-03-01T02:40:22;26.13;;;16.70;;
37495;SDS011;23346;52.088;4.746;2023-03-01T02:42:50;31.00;;;15.33;;
37495;SDS011;23346;52.088;4.746;2023-03-01T02:45:17;23.27;;;15.53;;
37495;SDS011;23346;52.088;4.746;2023-03-01T02:47:43;29.50;;;15.57;;
37495;SDS011;23346;52.088;4.746;2023-03-01T02:50:52;31.10;;;16.07;;
37495;SDS011;23346;52.088;4.746;2023-03-01T02:53:11;24.50;;;15.37;;
37495;SDS011;23346;52.088;4.746;2023-03-01T02:55:38;28.77;;;14.43;;
37495;SDS011;23346;52.088;4.746;2023-03-01T02:58:04;23.73;;;15.77;;
37495;SDS011;23346;52.088;4.746;2023-03-01T03:00:33;19.73;;;12.40;;
37495;SDS011;23346;52.088;4.746;2023-03-01T03:03:04;28.50;;;14.97;;
37495;SDS011;23346;52.088;4.746;2023-03-01T03:05:30;23.17;;;14.93;;
37495;SDS011;23346;52.088;4.746;2023-03-01T03:07:57;21.10;;;13.03;;
37495;SDS011;23346;52.088;4.746;2023-03-01T03:10:24;29.43;;;12.97;;
37495;SDS011;23346;52.088;4.746;2023-03-01T03:12:51;22.33;;;9.80;;
37495;SDS011;23346;52.088;4.746;2023-03-01T03:15:18;29.57;;;13.27;;
37495;SDS011;23346;52.088;4.746;2023-03-01T03:17:45;29.90;;;12.97;;
37495;SDS011;23346;52.088;4.746;2023-03-01T03:20:12;26.13;;;13.87;;
37495;SDS011;23346;52.088;4.746;2023-03-01T03:22:43;25.67;;;13.83;;
37495;SDS011;23346;52.088;4.746;2023-03-01T03:25:09;26.13;;;14.87;;
37495;SDS011;23346;52.088;4.746;2023-03-01T03:27:39;21.13;;;12.97;;
37495;SDS011;23346;52.088;4.746;2023-03-01T03:30:07;31.40;;;12.53;;
37495;SDS011;23346;52.088;4.746;2023-03-01T03:32:36;21.33;;;10.17;;
37495;SDS011;23346;52.088;4.746;2023-03-01T03:35:03;19.07;;;11.60;;
37495;SDS011;23346;52.088;4.746;2023-03-01T03:37:37;20.40;;;12.67;;
37495;SDS011;23346;52.088;4.746;2023-03-01T03:40:22;17.20;;;10.97;;
37495;SDS011;23346;52.088;4.746;2023-03-01T03:42:48;19.37;;;11.20;;
37495;SDS011;23346;52.088;4.746;2023-03-01T03:45:15;22.20;;;12.97;;
37495;SDS011;23346;52.088;4.746;2023-03-01T03:47:41;22.63;;;9.97;;
37495;SDS011;23346;52.088;4.746;2023-03-01T03:50:08;16.37;;;10.20;;
37495;SDS011;23346;52.088;4.746;2023-03-01T03:52:34;20.97;;;11.43;;
37495;SDS011;23346;52.088;4.746;2023-03-01T03:55:00;15.10;;;10.50;;
37495;SDS011;23346;52.088;4.746;2023-03-01T03:57:26;24.63;;;12.47;;
37495;SDS011;23346;52.088;4.746;2023-03-01T03:59:52;20.87;;;10.93;;
37495;SDS011;23346;52.088;4.746;2023-03-01T04:02:18;15.20;;;10.30;;
37495;SDS011;23346;52.088;4.746;2023-03-01T04:04:47;17.87;;;9.23;;
37495;SDS011;23346;52.088;4.746;2023-03-01T04:07:15;22.50;;;11.40;;
37495;SDS011;23346;52.088;4.746;2023-03-01T04:09:41;25.13;;;12.47;;
37495;SDS011;23346;52.088;4.746;2023-03-01T04:12:07;13.73;;;9.33;;
37495;SDS011;23346;52.088;4.746;2023-03-01T04:14:34;15.60;;;10.07;;
37495;SDS011;23346;52.088;4.746;2023-03-01T04:17:00;31.00;;;10.50;;
37495;SDS011;23346;52.088;4.746;2023-03-01T04:19:26;19.33;;;11.57;;
37495;SDS011;23346;52.088;4.746;2023-03-01T04:21:52;16.07;;;10.40;;
37495;SDS011;23346;52.088;4.746;2023-03-01T04:24:18;16.60;;;10.40;;
37495;SDS011;23346;52.088;4.746;2023-03-01T04:26:44;19.43;;;11.40;;
37495;SDS011;23346;52.088;4.746;2023-03-01T04:29:10;20.10;;;11.37;;
37495;SDS011;23346;52.088;4.746;2023-03-01T04:31:36;18.57;;;10.93;;
37495;SDS011;23346;52.088;4.746;2023-03-01T04:34:02;14.07;;;9.10;;
37495;SDS011;23346;52.088;4.746;2023-03-01T04:36:28;24.23;;;10.40;;
37495;SDS011;23346;52.088;4.746;2023-03-01T04:38:55;13.73;;;10.40;;
37495;SDS011;23346;52.088;4.746;2023-03-01T04:41:22;17.43;;;11.87;;
37495;SDS011;23346;52.088;4.746;2023-03-01T04:43:48;21.73;;;11.40;;
37495;SDS011;23346;52.088;4.746;2023-03-01T04:46:16;19.00;;;11.07;;
37495;SDS011;23346;52.088;4.746;2023-03-01T04:48:43;17.17;;;10.70;;
37495;SDS011;23346;52.088;4.746;2023-03-01T04:51:09;19.27;;;9.93;;
37495;SDS011;23346;52.088;4.746;2023-03-01T04:53:38;13.53;;;10.50;;
37495;SDS011;23346;52.088;4.746;2023-03-01T04:56:04;15.47;;;10.37;;
37495;SDS011;23346;52.088;4.746;2023-03-01T04:58:31;19.17;;;10.93;;
37495;SDS011;23346;52.088;4.746;2023-03-01T05:00:57;12.67;;;9.33;;
37495;SDS011;23346;52.088;4.746;2023-03-01T05:03:23;14.87;;;9.27;;
37495;SDS011;23346;52.088;4.746;2023-03-01T05:05:50;11.33;;;9.87;;
37495;SDS011;23346;52.088;4.746;2023-03-01T05:08:16;8.77;;;7.63;;
37495;SDS011;23346;52.088;4.746;2023-03-01T05:10:43;11.97;;;8.63;;
37495;SDS011;23346;52.088;4.746;2023-03-01T05:13:11;14.83;;;10.07;;
37495;SDS011;23346;52.088;4.746;2023-03-01T05:15:38;21.03;;;10.43;;
37495;SDS011;23346;52.088;4.746;2023-03-01T05:18:04;12.30;;;8.47;;
37495;SDS011;23346;52.088;4.746;2023-03-01T05:20:36;10.17;;;9.23;;
37495;SDS011;23346;52.088;4.746;2023-03-01T05:23:02;13.43;;;10.27;;
37495;SDS011;23346;52.088;4.746;2023-03-01T05:25:30;14.53;;;9.03;;
37495;SDS011;23346;52.088;4.746;2023-03-01T05:27:58;20.80;;;10.17;;
37495;SDS011;23346;52.088;4.746;2023-03-01T05:30:24;19.23;;;10.03;;
37495;SDS011;23346;52.088;4.746;2023-03-01T05:32:50;15.03;;;10.77;;
37495;SDS011;23346;52.088;4.746;2023-03-01T05:35:20;13.77;;;9.03;;
37495;SDS011;23346;52.088;4.746;2023-03-01T05:37:47;17.57;;;9.60;;
37495;SDS011;23346;52.088;4.746;2023-03-01T05:40:15;13.03;;;9.13;;
37495;SDS011;23346;52.088;4.746;2023-03-01T05:42:45;14.57;;;9.73;;
37495;SDS011;23346;52.088;4.746;2023-03-01T05:45:12;14.03;;;9.43;;
37495;SDS011;23346;52.088;4.746;2023-03-01T05:47:39;14.47;;;8.10;;
37495;SDS011;23346;52.088;4.746;2023-03-01T05:50:08;13.47;;;9.63;;
37495;SDS011;23346;52.088;4.746;2023-03-01T05:52:34;8.40;;;6.83;;
37495;SDS011;23346;52.088;4.746;2023-03-01T05:55:00;22.20;;;11.67;;
37495;SDS011;23346;52.088;4.746;2023-03-01T05:57:27;13.47;;;8.03;;
37495;SDS011;23346;52.088;4.746;2023-03-01T05:59:54;18.10;;;9.90;;
37495;SDS011;23346;52.088;4.746;2023-03-01T06:02:19;14.30;;;7.47;;
37495;SDS011;23346;52.088;4.746;2023-03-01T06:04:45;14.17;;;9.43;;
37495;SDS011;23346;52.088;4.746;2023-03-01T06:07:11;9.70;;;8.53;;
37495;SDS011;23346;52.088;4.746;2023-03-01T06:09:37;13.47;;;10.20;;
37495;SDS011;23346;52.088;4.746;2023-03-01T06:12:03;10.83;;;8.30;;
37495;SDS011;23346;52.088;4.746;2023-03-01T06:14:30;9.40;;;7.83;;
37495;SDS011;23346;52.088;4.746;2023-03-01T06:16:56;12.67;;;8.93;;
37495;SDS011;23346;52.088;4.746;2023-03-01T06:19:22;12.20;;;9.43;;
37495;SDS011;23346;52.088;4.746;2023-03-01T06:21:48;11.53;;;8.03;;
37495;SDS011;23346;52.088;4.746;2023-03-01T06:24:14;8.33;;;7.47;;
37495;SDS011;23346;52.088;4.746;2023-03-01T06:26:40;12.97;;;8.83;;
37495;SDS011;23346;52.088;4.746;2023-03-01T06:29:06;10.60;;;6.97;;
37495;SDS011;23346;52.088;4.746;2023-03-01T06:31:33;15.17;;;8.87;;
37495;SDS011;23346;52.088;4.746;2023-03-01T06:33:59;25.07;;;10.10;;
37495;SDS011;23346;52.088;4.746;2023-03-01T06:36:25;15.60;;;11.53;;
37495;SDS011;23346;52.088;4.746;2023-03-01T06:38:51;13.87;;;9.67;;
37495;SDS011;23346;52.088;4.746;2023-03-01T06:41:17;16.60;;;8.00;;
37495;SDS011;23346;52.088;4.746;2023-03-01T06:43:43;14.13;;;10.00;;
37495;SDS011;23346;52.088;4.746;2023-03-01T06:46:09;20.77;;;9.17;;
37495;SDS011;23346;52.088;4.746;2023-03-01T06:48:35;10.17;;;9.07;;
37495;SDS011;23346;52.088;4.746;2023-03-01T06:51:01;13.40;;;8.43;;
37495;SDS011;23346;52.088;4.746;2023-03-01T06:53:28;17.93;;;10.90;;
37495;SDS011;23346;52.088;4.746;2023-03-01T06:55:57;20.23;;;11.23;;
37495;SDS011;23346;52.088;4.746;2023-03-01T06:58:25;10.53;;;9.47;;
37495;SDS011;23346;52.088;4.746;2023-03-01T07:00:51;11.63;;;10.40;;
37495;SDS011;23346;52.088;4.746;2023-03-01T07:03:18;19.47;;;10.47;;
37495;SDS011;23346;52.088;4.746;2023-03-01T07:05:44;19.03;;;9.03;;
37495;SDS011;23346;52.088;4.746;2023-03-01T07:08:10;18.37;;;10.23;;
37495;SDS011;23346;52.088;4.746;2023-03-01T07:10:36;15.20;;;8.37;;
37495;SDS011;23346;52.088;4.746;2023-03-01T07:13:02;23.53;;;10.33;;
37495;SDS011;23346;52.088;4.746;2023-03-01T07:15:29;18.47;;;10.53;;
37495;SDS011;23346;52.088;4.746;2023-03-01T07:17:55;11.97;;;8.70;;
37495;SDS011;23346;52.088;4.746;2023-03-01T07:20:21;12.50;;;7.67;;
37495;SDS011;23346;52.088;4.746;2023-03-01T07:22:50;15.10;;;8.93;;
37495;SDS011;23346;52.088;4.746;2023-03-01T07:25:16;18.60;;;9.60;;
37495;SDS011;23346;52.088;4.746;2023-03-01T07:27:42;17.70;;;10.73;;
37495;SDS011;23346;52.088;4.746;2023-03-01T07:30:08;16.13;;;10.97;;
37495;SDS011;23346;52.088;4.746;2023-03-01T07:32:34;18.40;;;9.57;;
37495;SDS011;23346;52.088;4.746;2023-03-01T07:35:00;19.83;;;11.07;;
37495;SDS011;23346;52.088;4.746;2023-03-01T07:37:26;19.23;;;11.07;;
37495;SDS011;23346;52.088;4.746;2023-03-01T07:39:52;20.03;;;11.43;;
37495;SDS011;23346;52.088;4.746;2023-03-01T07:42:18;23.03;;;12.20;;
37495;SDS011;23346;52.088;4.746;2023-03-01T07:44:44;24.83;;;12.33;;
37495;SDS011;23346;52.088;4.746;2023-03-01T07:47:10;21.80;;;12.73;;
37495;SDS011;23346;52.088;4.746;2023-03-01T07:49:36;27.80;;;12.43;;
37495;SDS011;23346;52.088;4.746;2023-03-01T07:52:02;25.30;;;12.73;;
37495;SDS011;23346;52.088;4.746;2023-03-01T07:54:28;31.00;;;14.63;;
37495;SDS011;23346;52.088;4.746;2023-03-01T07:56:55;30.90;;;12.90;;
37495;SDS011;23346;52.088;4.746;2023-03-01T07:59:22;29.17;;;13.90;;
37495;SDS011;23346;52.088;4.746;2023-03-01T08:01:53;35.80;;;16.03;;
37495;SDS011;23346;52.088;4.746;2023-03-01T08:04:19;25.93;;;14.83;;
37495;SDS011;23346;52.088;4.746;2023-03-01T08:06:45;31.63;;;15.50;;
37495;SDS011;23346;52.088;4.746;2023-03-01T08:09:11;34.30;;;14.63;;
37495;SDS011;23346;52.088;4.746;2023-03-01T08:11:37;44.50;;;15.57;;
37495;SDS011;23346;52.088;4.746;2023-03-01T08:14:03;34.80;;;14.17;;
37495;SDS011;23346;52.088;4.746;2023-03-01T08:16:29;36.13;;;17.50;;
37495;SDS011;23346;52.088;4.746;2023-03-01T08:18:55;34.63;;;16.60;;
37495;SDS011;23346;52.088;4.746;2023-03-01T08:21:24;31.07;;;16.27;;
37495;SDS011;23346;52.088;4.746;2023-03-01T08:23:50;31.37;;;15.73;;
37495;SDS011;23346;52.088;4.746;2023-03-01T08:26:17;36.03;;;16.80;;
37495;SDS011;23346;52.088;4.746;2023-03-01T08:28:44;27.60;;;15.13;;
37495;SDS011;23346;52.088;4.746;2023-03-01T08:33:39;37.13;;;16.77;;
37495;SDS011;23346;52.088;4.746;2023-03-01T08:36:05;37.30;;;19.17;;
37495;SDS011;23346;52.088;4.746;2023-03-01T08:38:32;34.90;;;19.67;;
37495;SDS011;23346;52.088;4.746;2023-03-01T08:40:59;35.73;;;18.17;;
37495;SDS011;23346;52.088;4.746;2023-03-01T08:43:26;28.47;;;13.73;;
37495;SDS011;23346;52.088;4.746;2023-03-01T08:45:52;35.47;;;16.27;;
37495;SDS011;23346;52.088;4.746;2023-03-01T08:48:18;25.53;;;13.47;;
37495;SDS011;23346;52.088;4.746;2023-03-01T08:50:44;31.33;;;17.33;;
37495;SDS011;23346;52.088;4.746;2023-03-01T08:53:10;27.53;;;14.80;;
37495;SDS011;23346;52.088;4.746;2023-03-01T08:55:36;27.97;;;14.53;;
37495;SDS011;23346;52.088;4.746;2023-03-01T08:58:02;21.20;;;10.60;;
37495;SDS011;23346;52.088;4.746;2023-03-01T09:00:28;31.37;;;14.33;;
37495;SDS011;23346;52.088;4.746;2023-03-01T09:02:54;27.60;;;14.43;;
37495;SDS011;23346;52.088;4.746;2023-03-01T09:05:20;22.47;;;11.60;;
37495;SDS011;23346;52.088;4.746;2023-03-01T09:07:46;24.40;;;13.70;;
37495;SDS011;23346;52.088;4.746;2023-03-01T09:10:12;33.53;;;16.00;;
37495;SDS011;23346;52.088;4.746;2023-03-01T09:12:38;26.63;;;14.63;;
37495;SDS011;23346;52.088;4.746;2023-03-01T09:15:04;32.37;;;15.33;;
37495;SDS011;23346;52.088;4.746;2023-03-01T09:17:30;32.53;;;17.27;;
37495;SDS011;23346;52.088;4.746;2023-03-01T09:19:56;29.43;;;14.43;;
37495;SDS011;23346;52.088;4.746;2023-03-01T09:22:22;28.20;;;14.67;;
37495;SDS011;23346;52.088;4.746;2023-03-01T09:24:48;25.30;;;15.17;;
37495;SDS011;23346;52.088;4.746;2023-03-01T09:27:14;26.73;;;15.17;;
37495;SDS011;23346;52.088;4.746;2023-03-01T09:29:43;24.53;;;11.77;;
37495;SDS011;23346;52.088;4.746;2023-03-01T09:32:09;23.80;;;12.80;;
37495;SDS011;23346;52.088;4.746;2023-03-01T09:34:35;26.23;;;13.70;;
37495;SDS011;23346;52.088;4.746;2023-03-01T09:37:20;28.20;;;14.10;;
37495;SDS011;23346;52.088;4.746;2023-03-01T09:39:46;31.90;;;15.40;;
37495;SDS011;23346;52.088;4.746;2023-03-01T09:42:12;26.33;;;14.23;;
37495;SDS011;23346;52.088;4.746;2023-03-01T09:44:48;27.80;;;14.67;;
37495;SDS011;23346;52.088;4.746;2023-03-01T09:47:17;27.00;;;14.80;;
37495;SDS011;23346;52.088;4.746;2023-03-01T09:49:44;22.47;;;12.63;;
37495;SDS011;23346;52.088;4.746;2023-03-01T09:54:58;20.47;;;11.13;;
37495;SDS011;23346;52.088;4.746;2023-03-01T09:57:36;18.00;;;10.77;;
37495;SDS011;23346;52.088;4.746;2023-03-01T10:05:25;10.77;;;6.73;;
37495;SDS011;23346;52.088;4.746;2023-03-01T10:08:40;11.90;;;7.40;;
37495;SDS011;23346;52.088;4.746;2023-03-01T10:10:42;11.07;;;6.27;;
37495;SDS011;23346;52.088;4.746;2023-03-01T10:13:16;10.10;;;7.00;;
37495;SDS011;23346;52.088;4.746;2023-03-01T10:15:44;10.53;;;7.07;;
37495;SDS011;23346;52.088;4.746;2023-03-01T10:18:15;9.93;;;5.43;;
37495;SDS011;23346;52.088;4.746;2023-03-01T10:20:51;11.67;;;7.47;;
37495;SDS011;23346;52.088;4.746;2023-03-01T10:23:18;13.60;;;6.70;;
37495;SDS011;23346;52.088;4.746;2023-03-01T10:25:47;12.67;;;7.20;;
37495;SDS011;23346;52.088;4.746;2023-03-01T10:28:17;9.80;;;6.03;;
37495;SDS011;23346;52.088;4.746;2023-03-01T10:30:45;13.43;;;7.00;;
37495;SDS011;23346;52.088;4.746;2023-03-01T10:33:22;13.30;;;7.60;;
37495;SDS011;23346;52.088;4.746;2023-03-01T10:35:49;14.67;;;7.43;;
37495;SDS011;23346;52.088;4.746;2023-03-01T10:38:15;12.60;;;7.70;;
37495;SDS011;23346;52.088;4.746;2023-03-01T10:40:57;9.80;;;5.97;;
37495;SDS011;23346;52.088;4.746;2023-03-01T10:43:24;10.40;;;7.10;;
37495;SDS011;23346;52.088;4.746;2023-03-01T10:45:51;10.43;;;6.23;;
37495;SDS011;23346;52.088;4.746;2023-03-01T10:48:21;13.10;;;6.73;;
37495;SDS011;23346;52.088;4.746;2023-03-01T10:51:04;13.00;;;6.83;;
37495;SDS011;23346;52.088;4.746;2023-03-01T10:54:03;9.30;;;6.23;;
37495;SDS011;23346;52.088;4.746;2023-03-01T10:56:22;13.70;;;7.80;;
37495;SDS011;23346;52.088;4.746;2023-03-01T11:01:42;8.77;;;5.50;;
37495;SDS011;23346;52.088;4.746;2023-03-01T11:06:35;14.27;;;6.17;;
37495;SDS011;23346;52.088;4.746;2023-03-01T11:09:23;12.27;;;6.27;;
37495;SDS011;23346;52.088;4.746;2023-03-01T11:11:56;12.20;;;5.13;;
37495;SDS011;23346;52.088;4.746;2023-03-01T11:14:23;13.33;;;7.67;;
37495;SDS011;23346;52.088;4.746;2023-03-01T11:16:58;10.73;;;6.77;;
37495;SDS011;23346;52.088;4.746;2023-03-01T11:19:24;12.30;;;7.00;;
37495;SDS011;23346;52.088;4.746;2023-03-01T11:21:53;11.67;;;4.60;;
37495;SDS011;23346;52.088;4.746;2023-03-01T11:24:23;11.20;;;6.73;;
37495;SDS011;23346;52.088;4.746;2023-03-01T11:26:52;11.10;;;6.33;;
37495;SDS011;23346;52.088;4.746;2023-03-01T11:29:36;11.17;;;5.57;;
37495;SDS011;23346;52.088;4.746;2023-03-01T11:32:04;7.70;;;4.53;;
37495;SDS011;23346;52.088;4.746;2023-03-01T11:34:36;8.87;;;5.60;;
37495;SDS011;23346;52.088;4.746;2023-03-01T11:37:08;8.73;;;4.60;;
37495;SDS011;23346;52.088;4.746;2023-03-01T11:42:38;6.37;;;4.50;;
37495;SDS011;23346;52.088;4.746;2023-03-01T11:45:08;5.80;;;3.53;;
37495;SDS011;23346;52.088;4.746;2023-03-01T11:52:48;5.63;;;3.43;;
37495;SDS011;23346;52.088;4.746;2023-03-01T11:55:21;6.83;;;3.90;;
37495;SDS011;23346;52.088;4.746;2023-03-01T12:00:25;9.37;;;5.30;;
37495;SDS011;23346;52.088;4.746;2023-03-01T12:03:00;9.67;;;4.90;;
37495;SDS011;23346;52.088;4.746;2023-03-01T12:05:37;10.93;;;5.27;;
37495;SDS011;23346;52.088;4.746;2023-03-01T12:08:26;7.27;;;3.93;;
37495;SDS011;23346;52.088;4.746;2023-03-01T12:13:52;11.30;;;5.37;;
37495;SDS011;23346;52.088;4.746;2023-03-01T12:16:27;7.20;;;4.47;;
37495;SDS011;23346;52.088;4.746;2023-03-01T12:26:40;6.30;;;3.77;;
37495;SDS011;23346;52.088;4.746;2023-03-01T12:49:59;5.70;;;3.20;;
37495;SDS011;23346;52.088;4.746;2023-03-01T12:54:54;3.50;;;2.77;;
37495;SDS011;23346;52.088;4.746;2023-03-01T12:57:30;5.80;;;3.37;;
37495;SDS011;23346;52.088;4.746;2023-03-01T13:02:42;6.03;;;3.37;;
37495;SDS011;23346;52.088;4.746;2023-03-01T13:08:29;8.23;;;3.63;;
37495;SDS011;23346;52.088;4.746;2023-03-01T13:10:51;2.93;;;2.03;;
37495;SDS011;23346;52.088;4.746;2023-03-01T13:13:23;6.27;;;2.73;;
37495;SDS011;23346;52.088;4.746;2023-03-01T13:15:49;6.73;;;2.97;;
37495;SDS011;23346;52.088;4.746;2023-03-01T13:20:51;6.97;;;3.30;;
37495;SDS011;23346;52.088;4.746;2023-03-01T13:31:02;7.20;;;3.50;;
37495;SDS011;23346;52.088;4.746;2023-03-01T13:35:55;5.10;;;3.10;;
37495;SDS011;23346;52.088;4.746;2023-03-01T13:41:06;5.30;;;3.20;;
37495;SDS011;23346;52.088;4.746;2023-03-01T13:43:36;7.03;;;3.77;;
37495;SDS011;23346;52.088;4.746;2023-03-01T13:46:20;4.57;;;3.17;;
37495;SDS011;23346;52.088;4.746;2023-03-01T13:48:48;7.33;;;3.47;;
37495;SDS011;23346;52.088;4.746;2023-03-01T13:51:20;7.73;;;3.33;;
37495;SDS011;23346;52.088;4.746;2023-03-01T13:53:47;4.87;;;3.33;;
37495;SDS011;23346;52.088;4.746;2023-03-01T13:56:14;6.03;;;3.93;;
37495;SDS011;23346;52.088;4.746;2023-03-01T13:58:47;5.80;;;3.33;;
37495;SDS011;23346;52.088;4.746;2023-03-01T14:01:20;5.77;;;2.87;;
37495;SDS011;23346;52.088;4.746;2023-03-01T14:03:46;4.83;;;3.47;;
37495;SDS011;23346;52.088;4.746;2023-03-01T14:06:13;5.93;;;3.37;;
37495;SDS011;23346;52.088;4.746;2023-03-01T14:08:41;6.40;;;4.10;;
37495;SDS011;23346;52.088;4.746;2023-03-01T14:13:44;5.77;;;3.07;;
37495;SDS011;23346;52.088;4.746;2023-03-01T14:21:23;2.70;;;2.47;;
37495;SDS011;23346;52.088;4.746;2023-03-01T14:23:51;6.67;;;3.30;;
37495;SDS011;23346;52.088;4.746;2023-03-01T14:26:21;6.03;;;3.47;;
37495;SDS011;23346;52.088;4.746;2023-03-01T14:28:47;2.23;;;2.03;;
37495;SDS011;23346;52.088;4.746;2023-03-01T14:33:55;7.57;;;3.33;;
37495;SDS011;23346;52.088;4.746;2023-03-01T14:36:26;7.43;;;2.87;;
37495;SDS011;23346;52.088;4.746;2023-03-01T14:38:52;4.23;;;2.83;;
37495;SDS011;23346;52.088;4.746;2023-03-01T14:41:20;5.10;;;2.13;;
37495;SDS011;23346;52.088;4.746;2023-03-01T14:44:03;4.57;;;3.23;;
37495;SDS011;23346;52.088;4.746;2023-03-01T14:46:34;4.37;;;2.40;;
37495;SDS011;23346;52.088;4.746;2023-03-01T14:49:05;6.43;;;2.80;;
37495;SDS011;23346;52.088;4.746;2023-03-01T14:51:38;6.80;;;2.60;;
37495;SDS011;23346;52.088;4.746;2023-03-01T14:54:10;4.50;;;2.50;;
37495;SDS011;23346;52.088;4.746;2023-03-01T14:56:44;3.67;;;2.47;;
37495;SDS011;23346;52.088;4.746;2023-03-01T14:59:11;3.63;;;2.43;;
37495;SDS011;23346;52.088;4.746;2023-03-01T15:01:38;7.60;;;2.50;;
37495;SDS011;23346;52.088;4.746;2023-03-01T15:04:06;4.27;;;2.23;;
37495;SDS011;23346;52.088;4.746;2023-03-01T15:06:32;3.97;;;2.73;;
37495;SDS011;23346;52.088;4.746;2023-03-01T15:08:58;6.88;;;2.78;;
37495;SDS011;23346;52.088;4.746;2023-03-01T15:11:31;4.20;;;2.80;;
37495;SDS011;23346;52.088;4.746;2023-03-01T15:13:57;4.32;;;2.85;;
37495;SDS011;23346;52.088;4.746;2023-03-01T15:16:33;7.27;;;3.40;;
37495;SDS011;23346;52.088;4.746;2023-03-01T15:19:03;5.70;;;2.70;;
37495;SDS011;23346;52.088;4.746;2023-03-01T15:21:34;6.00;;;3.23;;
37495;SDS011;23346;52.088;4.746;2023-03-01T15:24:15;6.53;;;3.17;;
37495;SDS011;23346;52.088;4.746;2023-03-01T15:26:52;5.87;;;3.50;;
37495;SDS011;23346;52.088;4.746;2023-03-01T15:29:23;3.90;;;2.72;;
37495;SDS011;23346;52.088;4.746;2023-03-01T15:32:37;5.33;;;3.73;;
37495;SDS011;23346;52.088;4.746;2023-03-01T15:34:43;6.53;;;3.50;;
37495;SDS011;23346;52.088;4.746;2023-03-01T15:37:35;4.03;;;2.77;;
37495;SDS011;23346;52.088;4.746;2023-03-01T15:39:56;7.63;;;3.60;;
37495;SDS011;23346;52.088;4.746;2023-03-01T15:45:07;7.60;;;4.03;;
37495;SDS011;23346;52.088;4.746;2023-03-01T15:47:33;6.90;;;3.53;;
37495;SDS011;23346;52.088;4.746;2023-03-01T15:50:00;8.33;;;4.30;;
37495;SDS011;23346;52.088;4.746;2023-03-01T15:52:32;6.57;;;2.97;;
37495;SDS011;23346;52.088;4.746;2023-03-01T15:55:02;5.40;;;3.17;;
37495;SDS011;23346;52.088;4.746;2023-03-01T15:57:29;7.63;;;3.63;;
37495;SDS011;23346;52.088;4.746;2023-03-01T15:59:55;8.73;;;3.67;;
37495;SDS011;23346;52.088;4.746;2023-03-01T16:02:24;7.87;;;3.60;;
37495;SDS011;23346;52.088;4.746;2023-03-01T16:04:50;5.43;;;2.93;;
37495;SDS011;23346;52.088;4.746;2023-03-01T16:07:16;6.47;;;3.57;;
37495;SDS011;23346;52.088;4.746;2023-03-01T16:09:42;5.70;;;3.60;;
37495;SDS011;23346;52.088;4.746;2023-03-01T16:12:15;7.67;;;3.80;;
37495;SDS011;23346;52.088;4.746;2023-03-01T16:14:42;6.53;;;3.37;;
37495;SDS011;23346;52.088;4.746;2023-03-01T16:17:08;4.93;;;3.00;;
37495;SDS011;23346;52.088;4.746;2023-03-01T16:19:35;7.43;;;3.63;;
37495;SDS011;23346;52.088;4.746;2023-03-01T16:22:02;6.00;;;3.53;;